sensor_id;sensor_type;location;lat;lon;timestamp;pressure;altitude;pressure_sealevel;temperature;humidity
59757;BME280;45631;51.962;5.974;2023-12-04T00:01:49;101197.72;;;-0.56;100.00
59757;BME280;45631;51.962;5.974;2023-12-04T00:04:17;101204.69;;;-0.60;100.00
59757;BME280;45631;51.962;5.974;2023-12-04T00:06:45;101198.66;;;-0.60;100.00
59757;BME280;45631;51.962;5.974;2023-12-04T00:09:14;101206.41;;;-0.60;100.00
59757;BME280;45631;51.962;5.974;2023-12-04T00:11:42;101201.22;;;-0.59;100.00
59757;BME280;45631;51.962;5.974;2023-12-04T00:14:11;101207.25;;;-0.58;100.00
59757;BME280;45631;51.962;5.974;2023-12-04T00:16:40;101215.91;;;-0.62;100.00
59757;BME280;45631;51.962;5.974;2023-12-04T00:19:09;101202.09;;;-0.58;100.00
59757;BME280;45631;51.962;5.974;2023-12-04T00:21:37;101187.41;;;-0.56;100.00
59757;BME280;45631;51.962;5.974;2023-12-04T00:24:05;101197.81;;;-0.61;100.00
59757;BME280;45631;51.962;5.974;2023-12-04T00:26:33;101189.16;;;-0.58;100.00
59757;BME280;45631;51.962;5.974;2023-12-04T00:29:01;101189.94;;;-0.52;100.00
59757;BME280;45631;51.962;5.974;2023-12-04T00:31:31;101184.81;;;-0.56;100.00
59757;BME280;45631;51.962;5.974;2023-12-04T00:34:00;101186.56;;;-0.58;100.00
59757;BME280;45631;51.962;5.974;2023-12-04T00:36:28;101181.34;;;-0.54;100.00
59757;BME280;45631;51.962;5.974;2023-12-04T00:38:57;101177.97;;;-0.57;100.00
59757;BME280;45631;51.962;5.974;2023-12-04T00:41:25;101171.88;;;-0.53;100.00
59757;BME280;45631;51.962;5.974;2023-12-04T00:43:53;101172.72;;;-0.53;100.00
59757;BME280;45631;51.962;5.974;2023-12-04T00:46:22;101169.31;;;-0.56;100.00
59757;BME280;45631;51.962;5.974;2023-12-04T00:48:52;101171.91;;;-0.58;100.00
59757;BME280;45631;51.962;5.974;2023-12-04T00:51:20;101172.72;;;-0.53;100.00
59757;BME280;45631;51.962;5.974;2023-12-04T00:53:48;101170.03;;;-0.45;100.00
59757;BME280;45631;51.962;5.974;2023-12-04T00:56:16;101165.72;;;-0.44;100.00
59757;BME280;45631;51.962;5.974;2023-12-04T00:58:45;101162.31;;;-0.48;100.00
59757;BME280;45631;51.962;5.974;2023-12-04T01:01:13;101164.03;;;-0.48;100.00
59757;BME280;45631;51.962;5.974;2023-12-04T01:03:41;101158.84;;;-0.47;100.00
59757;BME280;45631;51.962;5.974;2023-12-04T01:06:21;101160.63;;;-0.52;100.00
59757;BME280;45631;51.962;5.974;2023-12-04T01:08:52;101159.81;;;-0.54;100.00
59757;BME280;45631;51.962;5.974;2023-12-04T01:11:20;101166.72;;;-0.53;100.00
59757;BME280;45631;51.962;5.974;2023-12-04T01:13:49;101163.19;;;-0.51;100.00
59757;BME280;45631;51.962;5.974;2023-12-04T01:16:17;101164.03;;;-0.48;100.00
59757;BME280;45631;51.962;5.974;2023-12-04T01:18:46;101159.69;;;-0.46;100.00
59757;BME280;45631;51.962;5.974;2023-12-04T01:21:14;101154.53;;;-0.45;100.00
59757;BME280;45631;51.962;5.974;2023-12-04T01:23:43;101155.28;;;-0.38;100.00
59757;BME280;45631;51.962;5.974;2023-12-04T01:26:12;101150.16;;;-0.41;100.00
59757;BME280;45631;51.962;5.974;2023-12-04T01:28:40;101138.13;;;-0.42;100.00
59757;BME280;45631;51.962;5.974;2023-12-04T01:31:08;101140.69;;;-0.41;100.00
59757;BME280;45631;51.962;5.974;2023-12-04T01:33:36;101133.81;;;-0.43;100.00
59757;BME280;45631;51.962;5.974;2023-12-04T01:36:05;101132.03;;;-0.40;100.00
59757;BME280;45631;51.962;5.974;2023-12-04T01:38:34;101127.69;;;-0.36;100.00
59757;BME280;45631;51.962;5.974;2023-12-04T01:41:04;101119.06;;;-0.35;100.00
59757;BME280;45631;51.962;5.974;2023-12-04T01:43:32;101119.06;;;-0.35;100.00
59757;BME280;45631;51.962;5.974;2023-12-04T01:46:02;101119.03;;;-0.33;100.00
59757;BME280;45631;51.962;5.974;2023-12-04T01:48:30;101119.06;;;-0.35;100.00
59757;BME280;45631;51.962;5.974;2023-12-04T01:51:00;101108.72;;;-0.35;100.00
59757;BME280;45631;51.962;5.974;2023-12-04T01:53:32;101108.66;;;-0.32;100.00
59757;BME280;45631;51.962;5.974;2023-12-04T01:56:00;101099.22;;;-0.35;100.00
59757;BME280;45631;51.962;5.974;2023-12-04T01:58:30;101103.53;;;-0.33;100.00
59757;BME280;45631;51.962;5.974;2023-12-04T02:00:58;101106.19;;;-0.38;100.00
59757;BME280;45631;51.962;5.974;2023-12-04T02:03:29;101102.72;;;-0.39;100.00
59757;BME280;45631;51.962;5.974;2023-12-04T02:05:59;101101.84;;;-0.36;100.00
59757;BME280;45631;51.962;5.974;2023-12-04T02:08:29;101106.13;;;-0.35;100.00
59757;BME280;45631;51.962;5.974;2023-12-04T02:10:59;101094.91;;;-0.36;100.00
59757;BME280;45631;51.962;5.974;2023-12-04T02:13:27;101091.50;;;-0.36;100.00
59757;BME280;45631;51.962;5.974;2023-12-04T02:15:58;101089.69;;;-0.31;100.00
59757;BME280;45631;51.962;5.974;2023-12-04T02:18:28;101079.38;;;-0.32;100.00
59757;BME280;45631;51.962;5.974;2023-12-04T02:20:57;101080.34;;;-0.40;100.00
59757;BME280;45631;51.962;5.974;2023-12-04T02:23:25;101076.91;;;-0.40;100.00
59757;BME280;45631;51.962;5.974;2023-12-04T02:25:59;101083.84;;;-0.42;100.00
59757;BME280;45631;51.962;5.974;2023-12-04T02:28:33;101076.94;;;-0.42;100.00
59757;BME280;45631;51.962;5.974;2023-12-04T02:31:04;101077.00;;;-0.45;100.00
59757;BME280;45631;51.962;5.974;2023-12-04T02:33:33;101067.53;;;-0.46;100.00
59757;BME280;45631;51.962;5.974;2023-12-04T02:36:07;101065.75;;;-0.42;100.00
59757;BME280;45631;51.962;5.974;2023-12-04T02:38:36;101059.72;;;-0.43;100.00
59757;BME280;45631;51.962;5.974;2023-12-04T02:41:07;101058.00;;;-0.42;100.00
59757;BME280;45631;51.962;5.974;2023-12-04T02:43:38;101058.06;;;-0.47;100.00
59757;BME280;45631;51.962;5.974;2023-12-04T02:46:07;101052.03;;;-0.46;100.00
59757;BME280;45631;51.962;5.974;2023-12-04T02:48:35;101052.03;;;-0.46;100.00
59757;BME280;45631;51.962;5.974;2023-12-04T02:51:04;101042.53;;;-0.45;100.00
59757;BME280;45631;51.962;5.974;2023-12-04T02:53:32;101043.38;;;-0.43;100.00
59757;BME280;45631;51.962;5.974;2023-12-04T02:56:01;101035.66;;;-0.46;100.00
59757;BME280;45631;51.962;5.974;2023-12-04T02:58:30;101027.91;;;-0.46;100.00
59757;BME280;45631;51.962;5.974;2023-12-04T03:01:01;101020.97;;;-0.44;100.00
59757;BME280;45631;51.962;5.974;2023-12-04T03:03:29;101025.22;;;-0.40;100.00
59757;BME280;45631;51.962;5.974;2023-12-04T03:05:57;101023.50;;;-0.41;100.00
59757;BME280;45631;51.962;5.974;2023-12-04T03:08:25;101020.97;;;-0.43;100.00
59757;BME280;45631;51.962;5.974;2023-12-04T03:10:53;101021.81;;;-0.42;100.00
59757;BME280;45631;51.962;5.974;2023-12-04T03:13:23;101014.06;;;-0.42;100.00
59757;BME280;45631;51.962;5.974;2023-12-04T03:15:53;101008.00;;;-0.41;100.00
59757;BME280;45631;51.962;5.974;2023-12-04T03:18:21;101004.63;;;-0.45;100.00
59757;BME280;45631;51.962;5.974;2023-12-04T03:20:52;101002.91;;;-0.44;100.00
59757;BME280;45631;51.962;5.974;2023-12-04T03:23:20;101003.72;;;-0.44;100.00
59757;BME280;45631;51.962;5.974;2023-12-04T03:25:48;100995.19;;;-0.47;100.00
59757;BME280;45631;51.962;5.974;2023-12-04T03:28:16;100999.41;;;-0.42;100.00
59757;BME280;45631;51.962;5.974;2023-12-04T03:30:45;100995.91;;;-0.38;100.00
59757;BME280;45631;51.962;5.974;2023-12-04T03:33:14;100996.84;;;-0.43;100.00
59757;BME280;45631;51.962;5.974;2023-12-04T03:35:43;100991.72;;;-0.46;100.00
59757;BME280;45631;51.962;5.974;2023-12-04T03:38:11;100993.41;;;-0.42;100.00
59757;BME280;45631;51.962;5.974;2023-12-04T03:40:39;100996.00;;;-0.45;100.00
59757;BME280;45631;51.962;5.974;2023-12-04T03:43:07;100986.56;;;-0.45;100.00
59757;BME280;45631;51.962;5.974;2023-12-04T03:45:36;100985.66;;;-0.42;100.00
59757;BME280;45631;51.962;5.974;2023-12-04T03:48:04;100981.38;;;-0.46;100.00
59757;BME280;45631;51.962;5.974;2023-12-04T03:50:34;100983.19;;;-0.50;100.00
59757;BME280;45631;51.962;5.974;2023-12-04T03:53:02;100979.69;;;-0.47;100.00
59757;BME280;45631;51.962;5.974;2023-12-04T03:55:31;100971.81;;;-0.41;100.00
59757;BME280;45631;51.962;5.974;2023-12-04T03:57:59;100967.56;;;-0.44;100.00
59757;BME280;45631;51.962;5.974;2023-12-04T04:00:27;100967.66;;;-0.48;100.00
59757;BME280;45631;51.962;5.974;2023-12-04T04:02:55;100971.03;;;-0.45;100.00
59757;BME280;45631;51.962;5.974;2023-12-04T04:05:23;100960.72;;;-0.46;100.00
59757;BME280;45631;51.962;5.974;2023-12-04T04:07:53;100964.13;;;-0.44;100.00
59757;BME280;45631;51.962;5.974;2023-12-04T04:10:21;100955.44;;;-0.40;100.00
59757;BME280;45631;51.962;5.974;2023-12-04T04:12:49;100963.28;;;-0.45;100.00
59757;BME280;45631;51.962;5.974;2023-12-04T04:15:17;100960.81;;;-0.53;100.00
59757;BME280;45631;51.962;5.974;2023-12-04T04:17:45;100954.69;;;-0.47;100.00
59757;BME280;45631;51.962;5.974;2023-12-04T04:20:16;100957.38;;;-0.52;100.00
59757;BME280;45631;51.962;5.974;2023-12-04T04:22:44;100949.66;;;-0.55;100.00
59757;BME280;45631;51.962;5.974;2023-12-04T04:25:15;100940.97;;;-0.51;100.00
59757;BME280;45631;51.962;5.974;2023-12-04T04:27:43;100947.91;;;-0.53;100.00
59757;BME280;45631;51.962;5.974;2023-12-04T04:30:12;100942.69;;;-0.49;100.00
59757;BME280;45631;51.962;5.974;2023-12-04T04:32:41;100936.72;;;-0.53;100.00
59757;BME280;45631;51.962;5.974;2023-12-04T04:35:09;100932.41;;;-0.53;100.00
59757;BME280;45631;51.962;5.974;2023-12-04T04:37:37;100926.38;;;-0.52;100.00
59757;BME280;45631;51.962;5.974;2023-12-04T04:40:10;100923.06;;;-0.60;100.00
59757;BME280;45631;51.962;5.974;2023-12-04T04:42:39;100918.66;;;-0.55;100.00
59757;BME280;45631;51.962;5.974;2023-12-04T04:45:08;100916.91;;;-0.53;100.00
59757;BME280;45631;51.962;5.974;2023-12-04T04:47:37;100914.38;;;-0.56;100.00
59757;BME280;45631;51.962;5.974;2023-12-04T04:50:06;100909.22;;;-0.56;100.00
59757;BME280;45631;51.962;5.974;2023-12-04T04:52:34;100916.06;;;-0.53;100.00
59757;BME280;45631;51.962;5.974;2023-12-04T04:55:04;100916.06;;;-0.55;100.00
59757;BME280;45631;51.962;5.974;2023-12-04T04:57:33;100911.81;;;-0.56;100.00
59757;BME280;45631;51.962;5.974;2023-12-04T05:00:03;100907.56;;;-0.60;100.00
59757;BME280;45631;51.962;5.974;2023-12-04T05:02:31;100907.63;;;-0.64;100.00
59757;BME280;45631;51.962;5.974;2023-12-04T05:05:02;100897.31;;;-0.66;100.00
59757;BME280;45631;51.962;5.974;2023-12-04T05:07:30;100903.28;;;-0.61;100.00
59757;BME280;45631;51.962;5.974;2023-12-04T05:09:58;100899.00;;;-0.63;100.00
59757;BME280;45631;51.962;5.974;2023-12-04T05:12:26;100904.16;;;-0.63;100.00
59757;BME280;45631;51.962;5.974;2023-12-04T05:14:54;100900.78;;;-0.67;100.00
59757;BME280;45631;51.962;5.974;2023-12-04T05:17:24;100896.47;;;-0.65;100.00
59757;BME280;45631;51.962;5.974;2023-12-04T05:19:52;100899.09;;;-0.68;100.00
59757;BME280;45631;51.962;5.974;2023-12-04T05:22:20;100897.25;;;-0.63;100.00
59757;BME280;45631;51.962;5.974;2023-12-04T05:24:49;100907.50;;;-0.57;100.00
59757;BME280;45631;51.962;5.974;2023-12-04T05:27:17;100905.00;;;-0.63;100.00
59757;BME280;45631;51.962;5.974;2023-12-04T05:29:45;100894.69;;;-0.63;100.00
59757;BME280;45631;51.962;5.974;2023-12-04T05:32:13;100892.03;;;-0.58;100.00
59757;BME280;45631;51.962;5.974;2023-12-04T05:34:45;100887.66;;;-0.56;100.00
59757;BME280;45631;51.962;5.974;2023-12-04T05:37:13;100896.22;;;-0.53;100.00
59757;BME280;45631;51.962;5.974;2023-12-04T05:39:42;100898.03;;;-0.58;100.00
59757;BME280;45631;51.962;5.974;2023-12-04T05:42:10;100897.19;;;-0.58;100.00
59757;BME280;45631;51.962;5.974;2023-12-04T05:44:38;100884.34;;;-0.61;100.00
59757;BME280;45631;51.962;5.974;2023-12-04T05:47:06;100879.91;;;-0.56;100.00
59757;BME280;45631;51.962;5.974;2023-12-04T05:49:35;100877.31;;;-0.55;100.00
59757;BME280;45631;51.962;5.974;2023-12-04T05:52:05;100876.59;;;-0.63;100.00
59757;BME280;45631;51.962;5.974;2023-12-04T05:54:33;100874.00;;;-0.63;100.00
59757;BME280;45631;51.962;5.974;2023-12-04T05:57:01;100872.31;;;-0.62;100.00
59757;BME280;45631;51.962;5.974;2023-12-04T05:59:29;100863.75;;;-0.66;100.00
59757;BME280;45631;51.962;5.974;2023-12-04T06:01:57;100861.06;;;-0.60;100.00
59757;BME280;45631;51.962;5.974;2023-12-04T06:04:26;100855.84;;;-0.57;100.00
59757;BME280;45631;51.962;5.974;2023-12-04T06:06:54;100860.19;;;-0.60;100.00
59757;BME280;45631;51.962;5.974;2023-12-04T06:09:24;100850.75;;;-0.63;100.00
59757;BME280;45631;51.962;5.974;2023-12-04T06:11:52;100846.44;;;-0.61;100.00
59757;BME280;45631;51.962;5.974;2023-12-04T06:14:20;100840.31;;;-0.57;100.00
59757;BME280;45631;51.962;5.974;2023-12-04T06:16:48;100837.81;;;-0.60;100.00
59757;BME280;45631;51.962;5.974;2023-12-04T06:19:17;100842.13;;;-0.62;100.00
59757;BME280;45631;51.962;5.974;2023-12-04T06:21:45;100836.94;;;-0.60;100.00
59757;BME280;45631;51.962;5.974;2023-12-04T06:24:14;100836.94;;;-0.60;100.00
59757;BME280;45631;51.962;5.974;2023-12-04T06:26:45;100838.59;;;-0.56;100.00
59757;BME280;45631;51.962;5.974;2023-12-04T06:29:18;100836.91;;;-0.59;100.00
59757;BME280;45631;51.962;5.974;2023-12-04T06:31:47;100840.28;;;-0.55;100.00
59757;BME280;45631;51.962;5.974;2023-12-04T06:34:15;100828.28;;;-0.58;100.00
59757;BME280;45631;51.962;5.974;2023-12-04T06:36:44;100836.91;;;-0.59;100.00
59757;BME280;45631;51.962;5.974;2023-12-04T06:39:13;100842.91;;;-0.57;100.00
59757;BME280;45631;51.962;5.974;2023-12-04T06:41:45;100828.22;;;-0.53;100.00
59757;BME280;45631;51.962;5.974;2023-12-04T06:44:14;100824.69;;;-0.51;100.00
59757;BME280;45631;51.962;5.974;2023-12-04T06:46:47;100822.13;;;-0.52;100.00
59757;BME280;45631;51.962;5.974;2023-12-04T06:49:18;100816.94;;;-0.49;100.00
59757;BME280;45631;51.962;5.974;2023-12-04T06:51:46;100810.91;;;-0.49;100.00
59757;BME280;45631;51.962;5.974;2023-12-04T06:54:15;100804.06;;;-0.52;100.00
59757;BME280;45631;51.962;5.974;2023-12-04T06:56:46;100803.09;;;-0.48;100.00
59757;BME280;45631;51.962;5.974;2023-12-04T06:59:14;100798.84;;;-0.51;100.00
59757;BME280;45631;51.962;5.974;2023-12-04T07:01:42;100800.44;;;-0.43;100.00
59757;BME280;45631;51.962;5.974;2023-12-04T07:04:11;100794.47;;;-0.47;100.00
59757;BME280;45631;51.962;5.974;2023-12-04T07:06:40;100789.31;;;-0.47;100.00
59757;BME280;45631;51.962;5.974;2023-12-04T07:09:08;100790.16;;;-0.46;100.00
59757;BME280;45631;51.962;5.974;2023-12-04T07:11:36;100783.19;;;-0.43;100.00
59757;BME280;45631;51.962;5.974;2023-12-04T07:14:06;100788.34;;;-0.41;100.00
59757;BME280;45631;51.962;5.974;2023-12-04T07:16:39;100774.63;;;-0.43;100.00
59757;BME280;45631;51.962;5.974;2023-12-04T07:19:08;100781.53;;;-0.45;100.00
59757;BME280;45631;51.962;5.974;2023-12-04T07:21:36;100779.75;;;-0.42;100.00
59757;BME280;45631;51.962;5.974;2023-12-04T07:24:06;100779.75;;;-0.42;100.00
59757;BME280;45631;51.962;5.974;2023-12-04T07:26:35;100764.19;;;-0.40;100.00
59757;BME280;45631;51.962;5.974;2023-12-04T07:29:03;100759.75;;;-0.33;100.00
59757;BME280;45631;51.962;5.974;2023-12-04T07:31:33;100754.59;;;-0.33;100.00
59757;BME280;45631;51.962;5.974;2023-12-04T07:34:01;100750.28;;;-0.35;100.00
59757;BME280;45631;51.962;5.974;2023-12-04T07:36:29;100753.78;;;-0.37;100.00
59757;BME280;45631;51.962;5.974;2023-12-04T07:38:57;100748.50;;;-0.31;100.00
59757;BME280;45631;51.962;5.974;2023-12-04T07:41:26;100749.38;;;-0.32;100.00
59757;BME280;45631;51.962;5.974;2023-12-04T07:43:54;100751.97;;;-0.32;100.00
59757;BME280;45631;51.962;5.974;2023-12-04T07:46:22;100742.53;;;-0.35;100.00
59757;BME280;45631;51.962;5.974;2023-12-04T07:48:52;100746.78;;;-0.32;100.00
59757;BME280;45631;51.962;5.974;2023-12-04T07:51:22;100744.28;;;-0.35;100.00
59757;BME280;45631;51.962;5.974;2023-12-04T07:53:50;100737.28;;;-0.30;100.00
59757;BME280;45631;51.962;5.974;2023-12-04T07:56:19;100740.78;;;-0.32;100.00
59757;BME280;45631;51.962;5.974;2023-12-04T07:58:47;100742.53;;;-0.35;100.00
59757;BME280;45631;51.962;5.974;2023-12-04T08:01:15;100743.44;;;-0.37;100.00
59757;BME280;45631;51.962;5.974;2023-12-04T08:03:43;100733.00;;;-0.31;100.00
59757;BME280;45631;51.962;5.974;2023-12-04T08:06:13;100739.84;;;-0.28;100.00
59757;BME280;45631;51.962;5.974;2023-12-04T08:08:42;100721.66;;;-0.25;100.00
59757;BME280;45631;51.962;5.974;2023-12-04T08:11:10;100726.84;;;-0.25;100.00
59757;BME280;45631;51.962;5.974;2023-12-04T08:13:40;100748.34;;;-0.25;100.00
59757;BME280;45631;51.962;5.974;2023-12-04T08:16:13;100749.97;;;-0.19;100.00
59757;BME280;45631;51.962;5.974;2023-12-04T08:18:42;100750.88;;;-0.20;100.00
59757;BME280;45631;51.962;5.974;2023-12-04T08:21:15;100737.97;;;-0.22;100.00
59757;BME280;45631;51.962;5.974;2023-12-04T08:23:44;100739.59;;;-0.18;100.00
59757;BME280;45631;51.962;5.974;2023-12-04T08:26:12;100731.91;;;-0.21;100.00
59757;BME280;45631;51.962;5.974;2023-12-04T08:28:42;100736.16;;;-0.18;100.00
59757;BME280;45631;51.962;5.974;2023-12-04T08:31:10;100734.53;;;-0.22;100.00
59757;BME280;45631;51.962;5.974;2023-12-04T08:33:38;100730.13;;;-0.19;100.00
59757;BME280;45631;51.962;5.974;2023-12-04T08:36:07;100730.09;;;-0.17;100.00
59757;BME280;45631;51.962;5.974;2023-12-04T08:38:40;100727.47;;;-0.15;100.00
59757;BME280;45631;51.962;5.974;2023-12-04T08:41:08;100723.84;;;-0.07;100.00
59757;BME280;45631;51.962;5.974;2023-12-04T08:43:37;100720.56;;;-0.13;100.00
59757;BME280;45631;51.962;5.974;2023-12-04T08:46:05;100723.09;;;-0.12;100.00
59757;BME280;45631;51.962;5.974;2023-12-04T08:48:34;100718.63;;;-0.05;100.00
59757;BME280;45631;51.962;5.974;2023-12-04T08:51:03;100714.38;;;-0.08;100.00
59757;BME280;45631;51.962;5.974;2023-12-04T08:53:31;100713.53;;;-0.08;100.00
59757;BME280;45631;51.962;5.974;2023-12-04T08:56:00;100716.72;;;0.03;100.00
59757;BME280;45631;51.962;5.974;2023-12-04T08:58:29;100715.03;;;0.02;100.00
59757;BME280;45631;51.962;5.974;2023-12-04T09:00:57;100715.84;;;0.04;100.00
59757;BME280;45631;51.962;5.974;2023-12-04T09:03:26;100707.19;;;0.05;100.00
59757;BME280;45631;51.962;5.974;2023-12-04T09:05:58;100696.91;;;0.02;100.00
59757;BME280;45631;51.962;5.974;2023-12-04T09:08:27;100703.75;;;0.05;100.00
59757;BME280;45631;51.962;5.974;2023-12-04T09:11:07;100695.97;;;0.06;100.00
59757;BME280;45631;51.962;5.974;2023-12-04T09:13:49;100694.97;;;0.12;100.00
59757;BME280;45631;51.962;5.974;2023-12-04T09:16:17;100686.41;;;0.10;100.00
59757;BME280;45631;51.962;5.974;2023-12-04T09:18:45;100681.16;;;0.13;100.00
59757;BME280;45631;51.962;5.974;2023-12-04T09:21:14;100677.63;;;0.15;100.00
59757;BME280;45631;51.962;5.974;2023-12-04T09:23:42;100674.19;;;0.15;100.00
59757;BME280;45631;51.962;5.974;2023-12-04T09:26:18;100674.97;;;0.19;100.00
59757;BME280;45631;51.962;5.974;2023-12-04T09:28:46;100665.44;;;0.21;100.00
59757;BME280;45631;51.962;5.974;2023-12-04T09:31:19;100666.25;;;0.23;100.00
59757;BME280;45631;51.962;5.974;2023-12-04T09:33:47;100663.69;;;0.21;100.00
59757;BME280;45631;51.962;5.974;2023-12-04T09:36:16;100668.78;;;0.24;100.00
59757;BME280;45631;51.962;5.974;2023-12-04T09:38:44;100663.56;;;0.27;100.00
59757;BME280;45631;51.962;5.974;2023-12-04T09:41:16;100669.53;;;0.29;100.00
59757;BME280;45631;51.962;5.974;2023-12-04T09:43:46;100667.75;;;0.31;100.00
59757;BME280;45631;51.962;5.974;2023-12-04T09:46:15;100668.59;;;0.32;100.00
59757;BME280;45631;51.962;5.974;2023-12-04T09:48:44;100667.63;;;0.36;100.00
59757;BME280;45631;51.962;5.974;2023-12-04T09:51:14;100665.88;;;0.37;100.00
59757;BME280;45631;51.962;5.974;2023-12-04T09:53:46;100668.28;;;0.44;100.00
59757;BME280;45631;51.962;5.974;2023-12-04T09:56:15;100665.78;;;0.41;100.00
59757;BME280;45631;51.962;5.974;2023-12-04T09:58:50;100660.53;;;0.44;100.00
59757;BME280;45631;51.962;5.974;2023-12-04T10:01:20;100654.38;;;0.48;100.00
59757;BME280;45631;51.962;5.974;2023-12-04T10:03:50;100652.63;;;0.49;100.00
59757;BME280;45631;51.962;5.974;2023-12-04T10:06:19;100654.28;;;0.52;100.00
59757;BME280;45631;51.962;5.974;2023-12-04T10:08:47;100647.34;;;0.54;100.00
59757;BME280;45631;51.962;5.974;2023-12-04T10:11:17;100641.31;;;0.53;100.00
59757;BME280;45631;51.962;5.974;2023-12-04T10:13:47;100644.66;;;0.57;100.00
59757;BME280;45631;51.962;5.974;2023-12-04T10:16:32;100638.69;;;0.55;100.00
59757;BME280;45631;51.962;5.974;2023-12-04T10:19:18;100636.78;;;0.61;100.00
59757;BME280;45631;51.962;5.974;2023-12-04T10:21:48;100639.41;;;0.60;100.00
59757;BME280;45631;51.962;5.974;2023-12-04T10:24:30;100636.81;;;0.60;100.00
59757;BME280;45631;51.962;5.974;2023-12-04T10:26:58;100620.50;;;0.58;100.00
59757;BME280;45631;51.962;5.974;2023-12-04T10:29:30;100617.09;;;0.56;100.00
59757;BME280;45631;51.962;5.974;2023-12-04T10:32:08;100612.69;;;0.59;100.00
59757;BME280;45631;51.962;5.974;2023-12-04T10:34:37;100614.28;;;0.63;100.00
59757;BME280;45631;51.962;5.974;2023-12-04T10:37:05;100616.59;;;0.74;100.00
59757;BME280;45631;51.962;5.974;2023-12-04T10:39:45;100617.44;;;0.75;100.00
59757;BME280;45631;51.962;5.974;2023-12-04T10:42:24;100613.06;;;0.77;100.00
59757;BME280;45631;51.962;5.974;2023-12-04T10:44:56;100609.72;;;0.73;100.00
59757;BME280;45631;51.962;5.974;2023-12-04T10:47:26;100608.72;;;0.77;100.00
59757;BME280;45631;51.962;5.974;2023-12-04T10:49:54;100599.19;;;0.79;100.00
59757;BME280;45631;51.962;5.974;2023-12-04T10:52:27;100597.50;;;0.78;100.00
59757;BME280;45631;51.962;5.974;2023-12-04T10:54:56;100594.91;;;0.78;100.00
59757;BME280;45631;51.962;5.974;2023-12-04T10:57:27;100585.56;;;0.73;100.00
59757;BME280;45631;51.962;5.974;2023-12-04T10:59:59;100587.22;;;0.75;100.00
59757;BME280;45631;51.962;5.974;2023-12-04T11:02:33;100574.28;;;0.75;100.00
59757;BME280;45631;51.962;5.974;2023-12-04T11:05:07;100580.16;;;0.80;100.00
59757;BME280;45631;51.962;5.974;2023-12-04T11:07:44;100574.13;;;0.80;100.00
59757;BME280;45631;51.962;5.974;2023-12-04T11:10:35;100564.72;;;0.77;100.00
59757;BME280;45631;51.962;5.974;2023-12-04T11:13:07;100560.31;;;0.81;100.00
59757;BME280;45631;51.962;5.974;2023-12-04T11:15:39;100564.63;;;0.80;100.00
59757;BME280;45631;51.962;5.974;2023-12-04T11:18:12;100558.38;;;0.88;100.00
59757;BME280;45631;51.962;5.974;2023-12-04T11:20:46;100552.41;;;0.86;100.00
59757;BME280;45631;51.962;5.974;2023-12-04T11:23:16;100547.22;;;0.86;100.00
59757;BME280;45631;51.962;5.974;2023-12-04T11:25:44;100551.56;;;0.85;100.00
59757;BME280;45631;51.962;5.974;2023-12-04T11:28:14;100551.34;;;0.91;100.00
59757;BME280;45631;51.962;5.974;2023-12-04T11:30:45;100541.88;;;0.92;100.00
59757;BME280;45631;51.962;5.974;2023-12-04T11:33:14;100538.47;;;0.90;100.00
59757;BME280;45631;51.962;5.974;2023-12-04T11:35:44;100527.31;;;0.88;100.00
59757;BME280;45631;51.962;5.974;2023-12-04T11:38:13;100529.09;;;0.86;100.00
59757;BME280;45631;51.962;5.974;2023-12-04T11:40:42;100524.63;;;0.91;100.00
59757;BME280;45631;51.962;5.974;2023-12-04T11:43:24;100521.94;;;0.94;100.00
59757;BME280;45631;51.962;5.974;2023-12-04T11:45:54;100521.88;;;0.97;100.00
59757;BME280;45631;51.962;5.974;2023-12-04T11:48:36;100515.88;;;0.95;100.00
59757;BME280;45631;51.962;5.974;2023-12-04T11:51:07;100508.09;;;0.95;100.00
59757;BME280;45631;51.962;5.974;2023-12-04T11:53:37;100511.53;;;0.95;100.00
59757;BME280;45631;51.962;5.974;2023-12-04T11:56:11;100501.03;;;1.00;100.00
59757;BME280;45631;51.962;5.974;2023-12-04T11:58:43;100500.34;;;0.95;100.00
59757;BME280;45631;51.962;5.974;2023-12-04T12:01:13;100492.56;;;0.95;100.00
59757;BME280;45631;51.962;5.974;2023-12-04T12:03:44;100489.88;;;0.98;100.00
59757;BME280;45631;51.962;5.974;2023-12-04T12:06:13;100494.22;;;0.97;100.00
59757;BME280;45631;51.962;5.974;2023-12-04T12:08:42;100497.47;;;1.04;100.00
59757;BME280;45631;51.962;5.974;2023-12-04T12:11:11;100488.00;;;1.03;100.00
59757;BME280;45631;51.962;5.974;2023-12-04T12:13:40;100491.69;;;0.96;100.00
59757;BME280;45631;51.962;5.974;2023-12-04T12:16:09;100488.00;;;1.03;100.00
59757;BME280;45631;51.962;5.974;2023-12-04T12:18:41;100477.63;;;1.03;100.00
59757;BME280;45631;51.962;5.974;2023-12-04T12:21:10;100472.28;;;1.08;100.00
59757;BME280;45631;51.962;5.974;2023-12-04T12:23:38;100466.44;;;1.03;100.00
59757;BME280;45631;51.962;5.974;2023-12-04T12:26:07;100473.34;;;1.02;100.00
59757;BME280;45631;51.962;5.974;2023-12-04T12:28:36;100474.22;;;1.03;100.00
59757;BME280;45631;51.962;5.974;2023-12-04T12:31:04;100467.16;;;1.06;100.00
59757;BME280;45631;51.962;5.974;2023-12-04T12:33:33;100468.09;;;1.04;100.00
59757;BME280;45631;51.962;5.974;2023-12-04T12:36:03;100463.03;;;1.00;100.00
59757;BME280;45631;51.962;5.974;2023-12-04T12:38:32;100462.09;;;1.03;100.00
59757;BME280;45631;51.962;5.974;2023-12-04T12:41:06;100460.38;;;1.02;100.00
59757;BME280;45631;51.962;5.974;2023-12-04T12:43:37;100454.22;;;1.06;100.00
59757;BME280;45631;51.962;5.974;2023-12-04T12:46:06;100442.22;;;1.04;100.00
59757;BME280;45631;51.962;5.974;2023-12-04T12:48:35;100437.06;;;1.02;100.00
59757;BME280;45631;51.962;5.974;2023-12-04T12:51:05;100430.13;;;1.04;100.00
59757;BME280;45631;51.962;5.974;2023-12-04T12:53:37;100419.59;;;1.09;100.00
59757;BME280;45631;51.962;5.974;2023-12-04T12:56:06;100417.81;;;1.11;100.00